< < Back
Terminal Aerodrome Forecast


Current Version              Previous Versions:   1  2  3  4  5  6  7  8  9  

Terminal Aerodrome Forecast

397
FTUS42 KILM 220500
TAFFLO
TAF
KFLO 220525Z 2206/2306 35010KT P6SM SCT070
     FM221300 33013G19KT P6SM SKC
     FM222300 34009KT P6SM SKC=



Latest METAR

647
SAUS70 KWBC 221200 RRD
MTRFLO
METAR KFLO 221153Z 31005KT 10SM CLR 09/04 A3001 RMK AO2 SLP161 T00890044
10156 20089 53020


USA.gov is the U.S. government's official web portal to all federal, state and local government web resources and services.